sensor_id;sensor_type;location;lat;lon;timestamp;pressure;altitude;pressure_sealevel;temperature;humidity
17054;BME280;8643;48.824;11.422;2023-04-06T00:00:49;97207.28;;;-1.84;90.31
17054;BME280;8643;48.824;11.422;2023-04-06T00:03:18;97203.31;;;-1.98;92.93
17054;BME280;8643;48.824;11.422;2023-04-06T00:05:48;97208.66;;;-1.98;91.45
17054;BME280;8643;48.824;11.422;2023-04-06T00:08:17;97204.34;;;-1.99;93.11
17054;BME280;8643;48.824;11.422;2023-04-06T00:10:45;97201.28;;;-2.08;92.80
17054;BME280;8643;48.824;11.422;2023-04-06T00:13:13;97203.63;;;-2.12;94.03
17054;BME280;8643;48.824;11.422;2023-04-06T00:15:42;97198.75;;;-2.15;96.20
17054;BME280;8643;48.824;11.422;2023-04-06T00:18:11;97197.34;;;-2.17;97.67
17054;BME280;8643;48.824;11.422;2023-04-06T00:20:40;97205.09;;;-2.21;97.32
17054;BME280;8643;48.824;11.422;2023-04-06T00:23:08;97198.56;;;-2.25;98.27
17054;BME280;8643;48.824;11.422;2023-04-06T00:25:37;97199.56;;;-2.31;98.05
17054;BME280;8643;48.824;11.422;2023-04-06T00:28:05;97202.28;;;-2.43;98.18
17054;BME280;8643;48.824;11.422;2023-04-06T00:30:34;97203.84;;;-2.47;98.75
17054;BME280;8643;48.824;11.422;2023-04-06T00:33:02;97204.38;;;-2.62;99.41
17054;BME280;8643;48.824;11.422;2023-04-06T00:35:32;97199.16;;;-2.69;100.00
17054;BME280;8643;48.824;11.422;2023-04-06T00:38:01;97199.88;;;-2.73;100.00
17054;BME280;8643;48.824;11.422;2023-04-06T00:40:29;97205.72;;;-2.77;100.00
17054;BME280;8643;48.824;11.422;2023-04-06T00:42:58;97206.06;;;-2.73;100.00
17054;BME280;8643;48.824;11.422;2023-04-06T00:45:27;97203.28;;;-2.78;100.00
17054;BME280;8643;48.824;11.422;2023-04-06T00:47:56;97206.53;;;-2.76;100.00
17054;BME280;8643;48.824;11.422;2023-04-06T00:50:25;97203.53;;;-2.80;100.00
17054;BME280;8643;48.824;11.422;2023-04-06T00:52:56;97197.00;;;-2.84;100.00
17054;BME280;8643;48.824;11.422;2023-04-06T00:55:26;97203.53;;;-2.80;100.00
17054;BME280;8643;48.824;11.422;2023-04-06T00:57:58;97198.16;;;-2.80;100.00
17054;BME280;8643;48.824;11.422;2023-04-06T01:00:31;97193.84;;;-2.81;100.00
17054;BME280;8643;48.824;11.422;2023-04-06T01:03:02;97197.00;;;-2.84;100.00
17054;BME280;8643;48.824;11.422;2023-04-06T01:05:38;97190.97;;;-2.91;100.00
17054;BME280;8643;48.824;11.422;2023-04-06T01:08:17;97190.19;;;-3.03;100.00
17054;BME280;8643;48.824;11.422;2023-04-06T01:10:46;97192.88;;;-3.03;100.00
17054;BME280;8643;48.824;11.422;2023-04-06T01:13:27;97192.53;;;-3.07;100.00
17054;BME280;8643;48.824;11.422;2023-04-06T01:16:00;97200.00;;;-3.09;100.00
17054;BME280;8643;48.824;11.422;2023-04-06T01:18:46;97189.06;;;-3.07;100.00
17054;BME280;8643;48.824;11.422;2023-04-06T01:21:27;97193.72;;;-3.15;100.00
17054;BME280;8643;48.824;11.422;2023-04-06T01:24:13;97187.56;;;-3.15;100.00
17054;BME280;8643;48.824;11.422;2023-04-06T01:26:55;97190.13;;;-3.20;100.00
17054;BME280;8643;48.824;11.422;2023-04-06T01:29:28;97192.34;;;-3.17;100.00
17054;BME280;8643;48.824;11.422;2023-04-06T01:31:58;97187.31;;;-3.14;100.00
17054;BME280;8643;48.824;11.422;2023-04-06T01:34:28;97174.63;;;-3.18;100.00
17054;BME280;8643;48.824;11.422;2023-04-06T01:37:02;97171.38;;;-3.20;100.00
17054;BME280;8643;48.824;11.422;2023-04-06T01:39:32;97170.59;;;-3.21;100.00
17054;BME280;8643;48.824;11.422;2023-04-06T01:42:03;97166.38;;;-3.17;100.00
17054;BME280;8643;48.824;11.422;2023-04-06T01:44:34;97164.31;;;-2.98;100.00
17054;BME280;8643;48.824;11.422;2023-04-06T01:47:09;97165.47;;;-2.93;100.00
17054;BME280;8643;48.824;11.422;2023-04-06T01:49:37;97164.56;;;-2.99;100.00
17054;BME280;8643;48.824;11.422;2023-04-06T01:52:07;97170.97;;;-3.00;100.00
17054;BME280;8643;48.824;11.422;2023-04-06T01:54:40;97172.41;;;-3.09;100.00
17054;BME280;8643;48.824;11.422;2023-04-06T01:57:13;97169.59;;;-3.15;100.00
17054;BME280;8643;48.824;11.422;2023-04-06T02:00:07;97165.13;;;-3.26;100.00
17054;BME280;8643;48.824;11.422;2023-04-06T02:02:47;97170.50;;;-3.26;100.00
17054;BME280;8643;48.824;11.422;2023-04-06T02:05:21;97167.44;;;-3.18;100.00
17054;BME280;8643;48.824;11.422;2023-04-06T02:07:51;97173.81;;;-3.19;100.00
17054;BME280;8643;48.824;11.422;2023-04-06T02:10:29;97175.84;;;-3.38;100.00
17054;BME280;8643;48.824;11.422;2023-04-06T02:13:02;97174.59;;;-3.47;100.00
17054;BME280;8643;48.824;11.422;2023-04-06T02:15:30;97175.78;;;-3.55;100.00
17054;BME280;8643;48.824;11.422;2023-04-06T02:17:59;97168.56;;;-3.54;100.00
17054;BME280;8643;48.824;11.422;2023-04-06T02:20:28;97166.81;;;-3.48;100.00
17054;BME280;8643;48.824;11.422;2023-04-06T02:22:58;97165.28;;;-3.44;100.00
17054;BME280;8643;48.824;11.422;2023-04-06T02:25:27;97169.13;;;-3.40;100.00
17054;BME280;8643;48.824;11.422;2023-04-06T02:27:57;97169.69;;;-3.38;100.00
17054;BME280;8643;48.824;11.422;2023-04-06T02:30:29;97162.84;;;-3.46;100.00
17054;BME280;8643;48.824;11.422;2023-04-06T02:33:00;97166.06;;;-3.44;100.00
17054;BME280;8643;48.824;11.422;2023-04-06T02:35:35;97166.22;;;-3.39;100.00
17054;BME280;8643;48.824;11.422;2023-04-06T02:38:04;97164.34;;;-3.38;100.00
17054;BME280;8643;48.824;11.422;2023-04-06T02:40:32;97164.56;;;-3.40;100.00
17054;BME280;8643;48.824;11.422;2023-04-06T02:43:12;97158.88;;;-3.43;100.00
17054;BME280;8643;48.824;11.422;2023-04-06T02:45:41;97161.19;;;-3.35;100.00
17054;BME280;8643;48.824;11.422;2023-04-06T02:48:10;97163.16;;;-3.30;100.00
17054;BME280;8643;48.824;11.422;2023-04-06T02:50:39;97157.09;;;-3.38;100.00
17054;BME280;8643;48.824;11.422;2023-04-06T02:53:08;97157.00;;;-3.43;100.00
17054;BME280;8643;48.824;11.422;2023-04-06T02:55:38;97155.38;;;-3.44;100.00
17054;BME280;8643;48.824;11.422;2023-04-06T02:58:07;97157.72;;;-3.47;100.00
17054;BME280;8643;48.824;11.422;2023-04-06T03:00:47;97153.88;;;-3.52;100.00
17054;BME280;8643;48.824;11.422;2023-04-06T03:03:16;97162.47;;;-3.38;100.00
17054;BME280;8643;48.824;11.422;2023-04-06T03:05:45;97158.50;;;-3.35;100.00
17054;BME280;8643;48.824;11.422;2023-04-06T03:08:17;97159.88;;;-3.33;100.00
17054;BME280;8643;48.824;11.422;2023-04-06T03:10:46;97162.13;;;-3.41;100.00
17054;BME280;8643;48.824;11.422;2023-04-06T03:13:16;97161.47;;;-3.48;100.00
17054;BME280;8643;48.824;11.422;2023-04-06T03:15:50;97160.38;;;-3.47;100.00
17054;BME280;8643;48.824;11.422;2023-04-06T03:18:22;97155.63;;;-3.57;100.00
17054;BME280;8643;48.824;11.422;2023-04-06T03:20:52;97170.22;;;-3.65;100.00
17054;BME280;8643;48.824;11.422;2023-04-06T03:23:27;97155.88;;;-3.71;100.00
17054;BME280;8643;48.824;11.422;2023-04-06T03:25:59;97159.16;;;-3.80;100.00
17054;BME280;8643;48.824;11.422;2023-04-06T03:28:27;97164.75;;;-3.94;100.00
17054;BME280;8643;48.824;11.422;2023-04-06T03:31:00;97161.50;;;-4.08;100.00
17054;BME280;8643;48.824;11.422;2023-04-06T03:33:47;97159.38;;;-4.17;100.00
17054;BME280;8643;48.824;11.422;2023-04-06T03:36:22;97162.78;;;-4.22;100.00
17054;BME280;8643;48.824;11.422;2023-04-06T03:38:50;97168.72;;;-4.20;100.00
17054;BME280;8643;48.824;11.422;2023-04-06T03:41:20;97161.84;;;-4.28;100.00
17054;BME280;8643;48.824;11.422;2023-04-06T03:43:59;97170.19;;;-4.36;100.00
17054;BME280;8643;48.824;11.422;2023-04-06T03:46:29;97175.66;;;-4.31;100.00
17054;BME280;8643;48.824;11.422;2023-04-06T03:48:59;97178.34;;;-4.31;100.00
17054;BME280;8643;48.824;11.422;2023-04-06T03:51:28;97181.13;;;-4.26;100.00
17054;BME280;8643;48.824;11.422;2023-04-06T03:53:57;97178.91;;;-4.29;100.00
17054;BME280;8643;48.824;11.422;2023-04-06T03:56:25;97176.47;;;-4.30;100.00
17054;BME280;8643;48.824;11.422;2023-04-06T03:58:54;97177.75;;;-4.33;100.00
17054;BME280;8643;48.824;11.422;2023-04-06T04:01:22;97178.56;;;-4.32;100.00
17054;BME280;8643;48.824;11.422;2023-04-06T04:03:53;97176.84;;;-4.27;100.00
17054;BME280;8643;48.824;11.422;2023-04-06T04:06:21;97178.56;;;-4.20;100.00
17054;BME280;8643;48.824;11.422;2023-04-06T04:08:50;97188.47;;;-4.21;100.00
17054;BME280;8643;48.824;11.422;2023-04-06T04:11:18;97189.31;;;-4.09;100.00
17054;BME280;8643;48.824;11.422;2023-04-06T04:13:53;97183.84;;;-4.14;100.00
17054;BME280;8643;48.824;11.422;2023-04-06T04:16:21;97187.75;;;-4.28;100.00
17054;BME280;8643;48.824;11.422;2023-04-06T04:18:53;97191.13;;;-4.45;100.00
17054;BME280;8643;48.824;11.422;2023-04-06T04:21:23;97190.47;;;-4.58;100.00
17054;BME280;8643;48.824;11.422;2023-04-06T04:23:53;97191.13;;;-4.75;100.00
17054;BME280;8643;48.824;11.422;2023-04-06T04:26:21;97189.47;;;-4.88;100.00
17054;BME280;8643;48.824;11.422;2023-04-06T04:28:50;97191.56;;;-4.90;100.00
17054;BME280;8643;48.824;11.422;2023-04-06T04:31:18;97193.78;;;-4.87;100.00
17054;BME280;8643;48.824;11.422;2023-04-06T04:33:55;97194.78;;;-4.69;100.00
17054;BME280;8643;48.824;11.422;2023-04-06T04:36:29;97191.53;;;-4.59;100.00
17054;BME280;8643;48.824;11.422;2023-04-06T04:39:02;97197.81;;;-4.54;100.00
17054;BME280;8643;48.824;11.422;2023-04-06T04:41:36;97189.94;;;-4.37;100.00
17054;BME280;8643;48.824;11.422;2023-04-06T04:44:07;97196.81;;;-4.41;100.00
17054;BME280;8643;48.824;11.422;2023-04-06T04:46:36;97194.47;;;-4.49;100.00
17054;BME280;8643;48.824;11.422;2023-04-06T04:49:07;97193.16;;;-4.58;100.00
17054;BME280;8643;48.824;11.422;2023-04-06T04:51:36;97189.16;;;-4.68;100.00
17054;BME280;8643;48.824;11.422;2023-04-06T04:54:11;97192.91;;;-4.69;100.00
17054;BME280;8643;48.824;11.422;2023-04-06T04:56:41;97194.84;;;-4.76;100.00
17054;BME280;8643;48.824;11.422;2023-04-06T04:59:20;97194.25;;;-4.78;100.00
17054;BME280;8643;48.824;11.422;2023-04-06T05:01:55;97197.75;;;-4.78;100.00
17054;BME280;8643;48.824;11.422;2023-04-06T05:04:38;97199.50;;;-4.71;100.00
17054;BME280;8643;48.824;11.422;2023-04-06T05:07:11;97197.91;;;-4.61;100.00
17054;BME280;8643;48.824;11.422;2023-04-06T05:09:41;97191.22;;;-4.51;100.00
17054;BME280;8643;48.824;11.422;2023-04-06T05:12:10;97203.19;;;-4.42;100.00
17054;BME280;8643;48.824;11.422;2023-04-06T05:14:49;97208.94;;;-4.27;100.00
17054;BME280;8643;48.824;11.422;2023-04-06T05:17:20;97206.59;;;-4.23;100.00
17054;BME280;8643;48.824;11.422;2023-04-06T05:19:51;97201.59;;;-4.19;100.00
17054;BME280;8643;48.824;11.422;2023-04-06T05:22:23;97189.53;;;-4.10;100.00
17054;BME280;8643;48.824;11.422;2023-04-06T05:25:06;97192.31;;;-4.05;100.00
17054;BME280;8643;48.824;11.422;2023-04-06T05:27:37;97192.44;;;-4.00;100.00
17054;BME280;8643;48.824;11.422;2023-04-06T05:30:16;97203.50;;;-3.84;100.00
17054;BME280;8643;48.824;11.422;2023-04-06T05:32:47;97204.19;;;-3.77;100.00
17054;BME280;8643;48.824;11.422;2023-04-06T05:35:18;97204.75;;;-3.63;100.00
17054;BME280;8643;48.824;11.422;2023-04-06T05:37:50;97206.97;;;-3.48;100.00
17054;BME280;8643;48.824;11.422;2023-04-06T05:40:23;97205.78;;;-3.29;100.00
17054;BME280;8643;48.824;11.422;2023-04-06T05:42:52;97205.13;;;-3.07;100.00
17054;BME280;8643;48.824;11.422;2023-04-06T05:45:20;97211.38;;;-2.90;100.00
17054;BME280;8643;48.824;11.422;2023-04-06T05:47:54;97205.44;;;-2.63;100.00
17054;BME280;8643;48.824;11.422;2023-04-06T05:50:28;97199.97;;;-2.23;100.00
17054;BME280;8643;48.824;11.422;2023-04-06T05:52:57;97193.16;;;-1.57;100.00
17054;BME280;8643;48.824;11.422;2023-04-06T05:55:31;97199.81;;;-0.99;100.00
17054;BME280;8643;48.824;11.422;2023-04-06T05:58:16;97203.22;;;-0.32;98.19
17054;BME280;8643;48.824;11.422;2023-04-06T06:00:46;97211.66;;;0.14;94.89
17054;BME280;8643;48.824;11.422;2023-04-06T06:03:16;97208.63;;;0.43;92.58
17054;BME280;8643;48.824;11.422;2023-04-06T06:05:52;97208.19;;;0.62;89.65
17054;BME280;8643;48.824;11.422;2023-04-06T06:08:29;97210.41;;;0.70;87.95
17054;BME280;8643;48.824;11.422;2023-04-06T06:11:02;97214.09;;;1.06;89.02
17054;BME280;8643;48.824;11.422;2023-04-06T06:13:30;97213.38;;;1.32;87.39
17054;BME280;8643;48.824;11.422;2023-04-06T06:16:00;97210.25;;;2.01;85.58
17054;BME280;8643;48.824;11.422;2023-04-06T06:18:35;97215.63;;;2.43;81.45
17054;BME280;8643;48.824;11.422;2023-04-06T06:21:05;97207.44;;;2.79;81.15
17054;BME280;8643;48.824;11.422;2023-04-06T06:23:34;97210.72;;;2.81;79.04
17054;BME280;8643;48.824;11.422;2023-04-06T06:26:03;97204.44;;;2.96;78.50
17054;BME280;8643;48.824;11.422;2023-04-06T06:28:32;97216.78;;;3.22;79.46
17054;BME280;8643;48.824;11.422;2023-04-06T06:31:01;97217.72;;;3.52;78.75
17054;BME280;8643;48.824;11.422;2023-04-06T06:33:29;97210.72;;;3.91;79.27
17054;BME280;8643;48.824;11.422;2023-04-06T06:35:59;97220.41;;;3.97;77.53
17054;BME280;8643;48.824;11.422;2023-04-06T06:38:31;97218.47;;;4.02;73.17
17054;BME280;8643;48.824;11.422;2023-04-06T06:40:59;97218.47;;;4.08;76.55
17054;BME280;8643;48.824;11.422;2023-04-06T06:43:31;97218.97;;;4.10;77.23
17054;BME280;8643;48.824;11.422;2023-04-06T06:46:03;97223.13;;;3.97;73.21
17054;BME280;8643;48.824;11.422;2023-04-06T06:48:33;97224.13;;;4.11;75.54
17054;BME280;8643;48.824;11.422;2023-04-06T06:51:02;97230.75;;;4.29;71.29
17054;BME280;8643;48.824;11.422;2023-04-06T06:53:31;97229.34;;;4.32;70.35
17054;BME280;8643;48.824;11.422;2023-04-06T06:56:00;97233.88;;;4.47;76.66
17054;BME280;8643;48.824;11.422;2023-04-06T06:58:30;97234.19;;;4.40;72.78
17054;BME280;8643;48.824;11.422;2023-04-06T07:00:59;97222.28;;;4.36;70.93
17054;BME280;8643;48.824;11.422;2023-04-06T07:03:30;97227.09;;;4.73;73.49
17054;BME280;8643;48.824;11.422;2023-04-06T07:05:59;97229.22;;;4.76;72.44
17054;BME280;8643;48.824;11.422;2023-04-06T07:08:28;97225.28;;;5.17;73.65
17054;BME280;8643;48.824;11.422;2023-04-06T07:10:57;97224.56;;;5.74;69.55
17054;BME280;8643;48.824;11.422;2023-04-06T07:13:26;97228.44;;;5.86;69.40
17054;BME280;8643;48.824;11.422;2023-04-06T07:15:57;97223.94;;;5.77;67.88
17054;BME280;8643;48.824;11.422;2023-04-06T07:18:25;97231.19;;;6.05;69.34
17054;BME280;8643;48.824;11.422;2023-04-06T07:20:55;97223.81;;;6.25;70.60
17054;BME280;8643;48.824;11.422;2023-04-06T07:23:24;97222.88;;;6.49;67.70
17054;BME280;8643;48.824;11.422;2023-04-06T07:25:53;97224.94;;;6.71;68.08
17054;BME280;8643;48.824;11.422;2023-04-06T07:28:23;97223.25;;;6.75;62.36
17054;BME280;8643;48.824;11.422;2023-04-06T07:30:51;97227.47;;;6.81;62.73
17054;BME280;8643;48.824;11.422;2023-04-06T07:33:21;97222.84;;;6.82;61.80
17054;BME280;8643;48.824;11.422;2023-04-06T07:35:50;97216.50;;;7.28;62.03
17054;BME280;8643;48.824;11.422;2023-04-06T07:38:19;97224.28;;;7.48;59.95
17054;BME280;8643;48.824;11.422;2023-04-06T07:40:48;97226.81;;;7.45;58.41
17054;BME280;8643;48.824;11.422;2023-04-06T07:43:17;97230.00;;;7.75;56.85
17054;BME280;8643;48.824;11.422;2023-04-06T07:45:47;97230.38;;;8.18;56.44
17054;BME280;8643;48.824;11.422;2023-04-06T07:48:16;97238.78;;;8.44;56.18
17054;BME280;8643;48.824;11.422;2023-04-06T07:50:45;97242.72;;;9.24;54.99
17054;BME280;8643;48.824;11.422;2023-04-06T07:53:17;97236.00;;;9.30;54.42
17054;BME280;8643;48.824;11.422;2023-04-06T07:55:46;97241.19;;;9.40;49.92
17054;BME280;8643;48.824;11.422;2023-04-06T07:58:14;97240.50;;;9.26;51.48
17054;BME280;8643;48.824;11.422;2023-04-06T08:00:43;97239.72;;;8.03;53.99
17054;BME280;8643;48.824;11.422;2023-04-06T08:03:12;97252.81;;;8.83;53.44
17054;BME280;8643;48.824;11.422;2023-04-06T08:05:41;97243.63;;;9.02;57.35
17054;BME280;8643;48.824;11.422;2023-04-06T08:08:10;97242.81;;;9.50;53.17
17054;BME280;8643;48.824;11.422;2023-04-06T08:10:38;97249.66;;;8.90;55.85
17054;BME280;8643;48.824;11.422;2023-04-06T08:13:07;97241.16;;;9.31;53.50
17054;BME280;8643;48.824;11.422;2023-04-06T08:15:36;97240.75;;;9.07;50.71
17054;BME280;8643;48.824;11.422;2023-04-06T08:18:05;97242.94;;;8.96;55.73
17054;BME280;8643;48.824;11.422;2023-04-06T08:20:35;97245.69;;;10.02;54.27
17054;BME280;8643;48.824;11.422;2023-04-06T08:23:04;97246.88;;;9.61;52.33
17054;BME280;8643;48.824;11.422;2023-04-06T08:25:35;97251.13;;;9.85;55.23
17054;BME280;8643;48.824;11.422;2023-04-06T08:28:04;97251.78;;;10.08;51.55
17054;BME280;8643;48.824;11.422;2023-04-06T08:30:33;97242.88;;;10.90;49.38
17054;BME280;8643;48.824;11.422;2023-04-06T08:33:01;97243.34;;;10.92;49.74
17054;BME280;8643;48.824;11.422;2023-04-06T08:35:30;97250.25;;;11.07;48.93
17054;BME280;8643;48.824;11.422;2023-04-06T08:38:00;97246.19;;;11.22;47.27
17054;BME280;8643;48.824;11.422;2023-04-06T08:40:29;97242.13;;;11.87;48.06
17054;BME280;8643;48.824;11.422;2023-04-06T08:43:01;97243.47;;;12.32;49.25
17054;BME280;8643;48.824;11.422;2023-04-06T08:45:35;97244.69;;;12.56;47.84
17054;BME280;8643;48.824;11.422;2023-04-06T08:48:05;97237.09;;;11.98;42.90
17054;BME280;8643;48.824;11.422;2023-04-06T08:50:36;97239.69;;;11.95;45.42
17054;BME280;8643;48.824;11.422;2023-04-06T08:53:08;97241.41;;;11.99;45.26
17054;BME280;8643;48.824;11.422;2023-04-06T08:55:37;97239.50;;;12.21;41.35
17054;BME280;8643;48.824;11.422;2023-04-06T08:58:07;97236.34;;;12.10;43.39
17054;BME280;8643;48.824;11.422;2023-04-06T09:00:38;97233.59;;;11.59;42.80
17054;BME280;8643;48.824;11.422;2023-04-06T09:03:09;97239.88;;;11.60;43.68
17054;BME280;8643;48.824;11.422;2023-04-06T09:05:40;97237.28;;;11.84;45.26
17054;BME280;8643;48.824;11.422;2023-04-06T09:08:10;97230.38;;;12.50;44.59
17054;BME280;8643;48.824;11.422;2023-04-06T09:10:41;97236.63;;;12.72;41.37
17054;BME280;8643;48.824;11.422;2023-04-06T09:13:10;97232.50;;;12.44;42.20
17054;BME280;8643;48.824;11.422;2023-04-06T09:15:38;97229.16;;;13.18;43.03
17054;BME280;8643;48.824;11.422;2023-04-06T09:18:07;97239.91;;;12.98;41.77
17054;BME280;8643;48.824;11.422;2023-04-06T09:20:36;97243.97;;;13.26;40.37
17054;BME280;8643;48.824;11.422;2023-04-06T09:23:04;97235.59;;;13.96;41.51
17054;BME280;8643;48.824;11.422;2023-04-06T09:25:34;97235.44;;;14.17;41.18
17054;BME280;8643;48.824;11.422;2023-04-06T09:28:04;97236.38;;;14.49;38.09
17054;BME280;8643;48.824;11.422;2023-04-06T09:30:34;97238.91;;;15.27;38.10
17054;BME280;8643;48.824;11.422;2023-04-06T09:33:03;97233.91;;;15.01;39.09
17054;BME280;8643;48.824;11.422;2023-04-06T09:35:32;97230.53;;;14.79;39.79
17054;BME280;8643;48.824;11.422;2023-04-06T09:38:11;97233.44;;;14.42;39.53
17054;BME280;8643;48.824;11.422;2023-04-06T09:40:50;97231.84;;;15.14;36.23
17054;BME280;8643;48.824;11.422;2023-04-06T09:43:29;97226.28;;;14.82;37.52
17054;BME280;8643;48.824;11.422;2023-04-06T09:46:00;97230.00;;;14.74;39.87
17054;BME280;8643;48.824;11.422;2023-04-06T09:48:35;97230.88;;;14.21;37.22
17054;BME280;8643;48.824;11.422;2023-04-06T09:51:06;97225.38;;;14.09;37.02
17054;BME280;8643;48.824;11.422;2023-04-06T09:53:38;97225.47;;;14.12;40.14
17054;BME280;8643;48.824;11.422;2023-04-06T09:56:16;97224.84;;;14.44;36.37
17054;BME280;8643;48.824;11.422;2023-04-06T09:58:49;97213.31;;;14.14;34.00
17054;BME280;8643;48.824;11.422;2023-04-06T10:01:21;97202.22;;;14.66;33.11
17054;BME280;8643;48.824;11.422;2023-04-06T10:03:56;97215.25;;;13.72;36.10
17054;BME280;8643;48.824;11.422;2023-04-06T10:06:33;97203.09;;;13.61;33.45
17054;BME280;8643;48.824;11.422;2023-04-06T10:09:06;97204.44;;;15.05;35.14
17054;BME280;8643;48.824;11.422;2023-04-06T10:11:38;97202.00;;;15.67;36.05
17054;BME280;8643;48.824;11.422;2023-04-06T10:14:08;97199.69;;;15.85;34.52
17054;BME280;8643;48.824;11.422;2023-04-06T10:16:39;97189.31;;;15.31;36.07
17054;BME280;8643;48.824;11.422;2023-04-06T10:19:17;97188.53;;;15.14;36.80
17054;BME280;8643;48.824;11.422;2023-04-06T10:21:51;97197.56;;;14.99;35.57
17054;BME280;8643;48.824;11.422;2023-04-06T10:24:23;97196.25;;;14.93;33.69
17054;BME280;8643;48.824;11.422;2023-04-06T10:27:02;97185.97;;;15.73;32.94
17054;BME280;8643;48.824;11.422;2023-04-06T10:29:44;97178.56;;;15.26;33.57
17054;BME280;8643;48.824;11.422;2023-04-06T10:32:14;97175.78;;;16.91;35.47
17054;BME280;8643;48.824;11.422;2023-04-06T10:34:44;97178.34;;;16.02;35.28
17054;BME280;8643;48.824;11.422;2023-04-06T10:37:14;97184.19;;;16.16;32.72
17054;BME280;8643;48.824;11.422;2023-04-06T10:39:46;97178.41;;;15.70;34.08
17054;BME280;8643;48.824;11.422;2023-04-06T10:42:20;97171.06;;;16.52;35.70
17054;BME280;8643;48.824;11.422;2023-04-06T10:44:51;97167.03;;;17.62;35.64
17054;BME280;8643;48.824;11.422;2023-04-06T10:47:20;97171.56;;;16.97;30.90
17054;BME280;8643;48.824;11.422;2023-04-06T10:49:49;97168.78;;;16.54;31.84
17054;BME280;8643;48.824;11.422;2023-04-06T10:52:18;97163.56;;;17.15;30.90
17054;BME280;8643;48.824;11.422;2023-04-06T10:54:47;97164.25;;;15.71;32.01
17054;BME280;8643;48.824;11.422;2023-04-06T10:57:27;97153.00;;;16.16;35.72
17054;BME280;8643;48.824;11.422;2023-04-06T10:59:58;97154.75;;;18.12;32.98
17054;BME280;8643;48.824;11.422;2023-04-06T11:02:26;97151.34;;;17.43;30.14
17054;BME280;8643;48.824;11.422;2023-04-06T11:04:56;97162.63;;;16.64;29.88
17054;BME280;8643;48.824;11.422;2023-04-06T11:07:25;97152.59;;;15.78;29.92
17054;BME280;8643;48.824;11.422;2023-04-06T11:09:56;97144.25;;;15.58;31.18
17054;BME280;8643;48.824;11.422;2023-04-06T11:12:44;97142.81;;;15.65;29.71
17054;BME280;8643;48.824;11.422;2023-04-06T11:15:13;97140.44;;;15.47;30.42
17054;BME280;8643;48.824;11.422;2023-04-06T11:17:42;97139.22;;;15.64;32.53
17054;BME280;8643;48.824;11.422;2023-04-06T11:20:13;97136.88;;;17.26;30.70
17054;BME280;8643;48.824;11.422;2023-04-06T11:22:51;97141.38;;;18.22;29.10
17054;BME280;8643;48.824;11.422;2023-04-06T11:25:20;97139.69;;;18.47;26.53
17054;BME280;8643;48.824;11.422;2023-04-06T11:27:51;97129.25;;;16.96;29.01
17054;BME280;8643;48.824;11.422;2023-04-06T11:30:20;97137.00;;;16.05;29.59
17054;BME280;8643;48.824;11.422;2023-04-06T11:32:48;97128.81;;;15.22;31.21
17054;BME280;8643;48.824;11.422;2023-04-06T11:35:21;97125.13;;;16.44;33.18
17054;BME280;8643;48.824;11.422;2023-04-06T11:37:51;97126.41;;;17.16;29.00
17054;BME280;8643;48.824;11.422;2023-04-06T11:40:21;97124.25;;;15.46;30.27
17054;BME280;8643;48.824;11.422;2023-04-06T11:42:56;97117.31;;;17.69;35.00
17054;BME280;8643;48.824;11.422;2023-04-06T11:45:25;97108.31;;;18.40;28.71
17054;BME280;8643;48.824;11.422;2023-04-06T11:47:59;97104.16;;;17.09;30.56
17054;BME280;8643;48.824;11.422;2023-04-06T11:50:32;97104.75;;;15.74;32.72
17054;BME280;8643;48.824;11.422;2023-04-06T11:53:02;97108.44;;;15.98;30.77
17054;BME280;8643;48.824;11.422;2023-04-06T11:55:37;97101.94;;;17.45;31.95
17054;BME280;8643;48.824;11.422;2023-04-06T11:58:08;97091.78;;;18.47;31.49
17054;BME280;8643;48.824;11.422;2023-04-06T12:00:37;97097.00;;;17.57;30.05
17054;BME280;8643;48.824;11.422;2023-04-06T12:03:05;97091.88;;;18.58;32.12
17054;BME280;8643;48.824;11.422;2023-04-06T12:05:34;97089.56;;;19.08;29.29
17054;BME280;8643;48.824;11.422;2023-04-06T12:08:03;97095.63;;;18.76;27.49
17054;BME280;8643;48.824;11.422;2023-04-06T12:10:31;97091.50;;;17.08;27.22
17054;BME280;8643;48.824;11.422;2023-04-06T12:13:00;97097.78;;;14.77;30.43
17054;BME280;8643;48.824;11.422;2023-04-06T12:15:30;97095.66;;;13.98;31.58
17054;BME280;8643;48.824;11.422;2023-04-06T12:17:59;97086.03;;;16.22;34.23
17054;BME280;8643;48.824;11.422;2023-04-06T12:20:27;97080.13;;;18.30;32.34
17054;BME280;8643;48.824;11.422;2023-04-06T12:22:56;97089.19;;;18.65;29.33
17054;BME280;8643;48.824;11.422;2023-04-06T12:25:25;97084.84;;;18.30;29.34
17054;BME280;8643;48.824;11.422;2023-04-06T12:27:54;97079.13;;;16.32;30.40
17054;BME280;8643;48.824;11.422;2023-04-06T12:30:23;97079.38;;;16.70;32.51
17054;BME280;8643;48.824;11.422;2023-04-06T12:32:53;97076.00;;;17.56;31.59
17054;BME280;8643;48.824;11.422;2023-04-06T12:35:22;97072.97;;;16.00;30.16
17054;BME280;8643;48.824;11.422;2023-04-06T12:37:51;97076.25;;;16.05;31.37
17054;BME280;8643;48.824;11.422;2023-04-06T12:40:20;97064.00;;;16.92;31.81
17054;BME280;8643;48.824;11.422;2023-04-06T12:42:49;97068.28;;;17.69;28.56
17054;BME280;8643;48.824;11.422;2023-04-06T12:45:17;97065.41;;;17.62;29.55
17054;BME280;8643;48.824;11.422;2023-04-06T12:47:46;97062.81;;;16.46;29.22
17054;BME280;8643;48.824;11.422;2023-04-06T12:50:16;97057.66;;;15.12;32.69
17054;BME280;8643;48.824;11.422;2023-04-06T12:52:45;97056.00;;;14.91;31.06
17054;BME280;8643;48.824;11.422;2023-04-06T12:55:13;97063.41;;;15.23;35.89
17054;BME280;8643;48.824;11.422;2023-04-06T12:57:42;97056.72;;;17.33;29.67
17054;BME280;8643;48.824;11.422;2023-04-06T13:00:12;97045.50;;;17.22;30.85
17054;BME280;8643;48.824;11.422;2023-04-06T13:02:41;97052.41;;;18.30;28.93
17054;BME280;8643;48.824;11.422;2023-04-06T13:05:15;97061.00;;;18.22;29.31
17054;BME280;8643;48.824;11.422;2023-04-06T13:07:46;97046.44;;;17.07;30.21
17054;BME280;8643;48.824;11.422;2023-04-06T13:10:15;97053.78;;;16.73;30.01
17054;BME280;8643;48.824;11.422;2023-04-06T13:12:43;97045.81;;;18.46;30.81
17054;BME280;8643;48.824;11.422;2023-04-06T13:15:12;97047.00;;;18.86;28.72
17054;BME280;8643;48.824;11.422;2023-04-06T13:17:40;97047.13;;;17.54;28.80